Tropical Cyclones
[Index]
Main Index Home Page Stock Weather Photos Extreme Storms Discussion Storm News and Storm Chasing Reports Tropical Cyclones / Hurricanes / Typhoons Weather Data and Links Wild Fires / Bushfires Weather Observation Techniques Weather Picture Catalogue Tornado Pictures and Reports Stock Video Footage and DVDs for sale
Season 2013-2014 Tropical Cyclone ALESSIA Track Map
Season 2013-2014 Summaries: [BoM-AU] [JTWC-AU] [JTWC-SIO] [JTWC-SPAC] [JTWC-SH]
<<- Previous TC | BoM 2013-2014 Season | Next TC ->>

click for intensity scale information  Lat/long Grid: Show Hide

 Date Labels: Show Hide

Bureau of Meteorology Tropical Cyclone Data

Name: ALESSIA
Number: 970 / 201314_01

19 Nov 2013 22:00 UTC to 01 Dec 2013 06:00 UTC

    date/time    lat    long    hPa   cat  kts
2013-11-19 22   10.5   113.2                            
2013-11-20 00   10.7   113.4   1004         20          
2013-11-20 06   11.3   114.0   1004         20          
2013-11-20 10   11.6   114.5                            
2013-11-20 12   11.7   114.6   1004         20          
2013-11-20 18   12.0   115.4   1002         25          
2013-11-20 21   12.2   115.9                            
2013-11-21 00   12.3   116.1   1001         25          
2013-11-21 06   12.7   116.6   1001         25          
2013-11-21 06   12.7   116.6                            
2013-11-21 10   13.2   117.3                            
2013-11-21 12   13.3   117.5   1002         25          
2013-11-21 15   13.3   117.7   1000         25          
2013-11-21 18   13.7   118.4   1002         25          
2013-11-21 21   14.0   119.0                            
2013-11-22 00   14.3   119.4   1000         30          
2013-11-22 00   14.3   119.4                            
2013-11-22 06   14.5   120.5    997         35          
2013-11-22 10   14.6   121.3                            
2013-11-22 12   14.6   121.7    997         35          
2013-11-22 17   14.6   122.7                            
2013-11-22 18   14.6   122.8    997         35          
2013-11-22 21   14.6   123.4                            
2013-11-23 00   14.6   123.8    997         35          
2013-11-23 06   14.5   124.6    999         35          
2013-11-23 09   14.4   125.1                            
2013-11-23 12   14.0   125.6    997         35          
2013-11-23 18   13.8   126.5    998         35          
2013-11-24 00   13.5   127.6    998         35          
2013-11-24 06   13.3   129.5    997         35          
2013-11-24 09   13.4   130.3    997         35          
2013-11-24 12   13.4   131.0   1000         30          
2013-11-24 18   13.6   132.0                            
2013-11-25 00   13.3   133.1                            
2013-11-25 06   13.3   133.6                            
2013-11-25 12   13.5   134.2   1003                     
2013-11-25 18   13.5   135.8   1002                     
2013-11-26 00   13.7   136.5   1004                     
2013-11-26 06   14.4   136.8   1000                     
2013-11-26 12   14.8   136.9   1002         25          
2013-11-26 18   15.3   136.9    996         30          
2013-11-27 00   15.6   137.1    997         30          
2013-11-27 06   15.9   137.6    993    1    40          
2013-11-27 12   16.2   137.5    991    1    40          
2013-11-27 18   16.9   137.3   1000         30          
2013-11-28 00   16.2   135.8   1005         25          
2013-11-28 06   16.0   135.5   1001         25          
2013-11-28 12   15.8   136.0   1004         25          
2013-11-28 18   15.8   136.7                25          
2013-11-29 00   16.0   137.2                25          
2013-11-29 06   16.2   137.6   1002         25          
2013-11-29 12   15.8   136.5   1005         20          
2013-11-29 18   15.8   137.4   1003         20          
2013-11-30 00   15.8   136.9   1007         20          
2013-11-30 06   15.0   136.4   1005         20          
2013-11-30 12   14.0   135.0   1006         15          
2013-11-30 18   14.0   134.5   1005         10          
2013-12-01 00   14.5   134.5   1009         10          
2013-12-01 06   14.0   134.0   1005                     
Winds are 10-min average.

Tropical cyclone tracks developed by Michael Bath using data from the Bureau of Meteorology and Google Maps.


[Australian Severe Weather index] [Copyright Notice] [Email Contacts] [Search This Site] [Privacy Policy]
Document: tropical_cyclone_alessia.htm Updated: 29 June 2017